Time;durP1;ratioP1;P1;durP2;ratioP2;P2;SDS_P1;SDS_P2;PMS_P1;PMS_P2;Temp;Humidity;BMP_temperature;BMP_pressure;BME280_temperature;BME280_humidity;BME280_pressure;Samples;Min_cycle;Max_cycle;Signal;HPM_P1;HPM_P2
2021/09/15 00:01:54;;;;;;;;;;;;;;;27.26;38.36;100816.41;5161569;27;779;-48
2021/09/15 00:04:20;;;;;;;;;;;;;;;27.47;38.08;100813.03;5160364;27;819;-37
2021/09/15 00:06:45;;;;;;;;;;;;;;;26.59;38.30;100816.03;5161024;27;872;-36
2021/09/15 00:09:10;;;;;;;;;;;;;;;24.56;43.28;100815.59;5160882;27;876;-32
2021/09/15 00:11:36;;;;;;;;;;;;;;;23.74;44.87;100816.88;5160821;27;822;-33
2021/09/15 00:14:02;;;;;;;;;;;;;;;23.45;45.90;100816.22;5160294;27;1972;-32
2021/09/15 00:16:28;;;;;;;;;;;;;;;23.23;46.48;100815.69;5161172;27;767;-33
2021/09/15 00:18:53;;;;;;;;;;;;;;;22.99;47.19;100814.47;5160048;27;830;-35
2021/09/15 00:21:18;;;;;;;;;;;;;;;22.75;47.94;100815.06;5160935;27;1675;-32
2021/09/15 00:23:43;;;;;;;;;;;;;;;22.81;47.96;100817.13;5160741;27;817;-48
2021/09/15 00:26:09;;;;;;;;;;;;;;;24.72;43.90;100816.66;5160374;27;878;-32
2021/09/15 00:28:34;;;;;;;;;;;;;;;25.62;41.67;100824.09;5160203;27;1020;-30
2021/09/15 00:30:59;;;;;;;;;;;;;;;26.04;40.58;100814.91;5159971;27;850;-35
2021/09/15 00:33:25;;;;;;;;;;;;;;;26.17;40.75;100816.22;5160423;27;771;-37
2021/09/15 00:35:50;;;;;;;;;;;;;;;26.46;40.73;100822.84;5160311;27;1906;-31
2021/09/15 00:38:15;;;;;;;;;;;;;;;26.75;39.54;100815.09;5160298;27;747;-34
2021/09/15 00:40:41;;;;;;;;;;;;;;;26.73;39.21;100814.41;5160165;27;807;-35
2021/09/15 00:43:06;;;;;;;;;;;;;;;26.98;38.76;100819.66;5160034;27;775;-33
2021/09/15 00:45:32;;;;;;;;;;;;;;;27.12;38.42;100813.50;5159677;27;941;-35
2021/09/15 00:47:57;;;;;;;;;;;;;;;27.30;38.40;100819.59;5159706;27;1117;-33
2021/09/15 00:50:22;;;;;;;;;;;;;;;27.35;38.07;100820.72;5160190;27;826;-46
2021/09/15 00:52:48;;;;;;;;;;;;;;;27.41;38.76;100824.53;5159903;27;834;-34
2021/09/15 00:55:13;;;;;;;;;;;;;;;27.60;37.64;100817.78;5140388;27;1909;-47
2021/09/15 00:57:39;;;;;;;;;;;;;;;27.57;38.23;100817.31;5159740;27;778;-34
2021/09/15 01:00:05;;;;;;;;;;;;;;;27.49;38.90;100816.38;5159671;27;969;-36
2021/09/15 01:02:31;;;;;;;;;;;;;;;27.73;37.91;100814.47;5159985;27;755;-35
2021/09/15 01:04:56;;;;;;;;;;;;;;;27.74;38.06;100818.03;5159611;27;810;-32
2021/09/15 01:07:21;;;;;;;;;;;;;;;27.75;38.31;100811.59;5159814;27;873;-39
2021/09/15 01:09:47;;;;;;;;;;;;;;;27.81;38.17;100815.41;5140795;27;776;-33
2021/09/15 01:12:13;;;;;;;;;;;;;;;27.66;39.66;100807.28;5159962;27;771;-34
2021/09/15 01:14:38;;;;;;;;;;;;;;;25.22;42.93;100808.66;5158974;27;1898;-32
2021/09/15 01:17:04;;;;;;;;;;;;;;;24.33;44.06;100805.47;5159919;27;771;-32
2021/09/15 01:19:29;;;;;;;;;;;;;;;23.69;45.16;100803.13;5159179;27;758;-31
2021/09/15 01:21:54;;;;;;;;;;;;;;;23.41;44.92;100803.25;5159297;27;1550;-44
2021/09/15 01:24:20;;;;;;;;;;;;;;;23.33;45.88;100807.53;5159290;27;842;-30
2021/09/15 01:26:45;;;;;;;;;;;;;;;23.08;46.50;100799.28;5158878;27;802;-30
2021/09/15 01:29:14;;;;;;;;;;;;;;;23.07;46.57;100796.75;5158989;27;981;-35
2021/09/15 01:31:52;;;;;;;;;;;;;;;22.93;47.16;100800.81;5159857;27;763;-41
2021/09/15 01:34:18;;;;;;;;;;;;;;;22.79;47.29;100803.03;5158870;27;1902;-30
2021/09/15 01:36:44;;;;;;;;;;;;;;;24.65;43.83;100808.41;5159084;27;770;-32
2021/09/15 01:39:09;;;;;;;;;;;;;;;25.44;41.69;100804.41;5140249;27;1340;-33
2021/09/15 01:41:34;;;;;;;;;;;;;;;26.07;40.22;100807.50;5158817;27;821;-34
2021/09/15 01:43:59;;;;;;;;;;;;;;;26.29;39.92;100813.97;5159041;27;942;-40
2021/09/15 01:46:25;;;;;;;;;;;;;;;26.56;39.61;100814.53;5159015;27;751;-32
2021/09/15 01:48:50;;;;;;;;;;;;;;;26.68;39.34;100814.13;5158046;27;1290;-34
2021/09/15 01:51:16;;;;;;;;;;;;;;;26.70;39.42;100812.09;5159077;27;751;-31
2021/09/15 01:53:41;;;;;;;;;;;;;;;27.09;38.48;100818.44;5158778;27;1910;-31
2021/09/15 01:56:06;;;;;;;;;;;;;;;27.07;38.88;100817.75;5158361;27;866;-35
2021/09/15 01:58:32;;;;;;;;;;;;;;;27.25;38.96;100817.44;5158445;27;1036;-29
2021/09/15 02:00:57;;;;;;;;;;;;;;;24.94;43.36;100819.75;5158430;27;779;-34
2021/09/15 02:03:22;;;;;;;;;;;;;;;23.34;45.65;100725.16;5158465;27;826;-32
2021/09/15 02:05:47;;;;;;;;;;;;;;;23.59;46.15;100822.84;5157905;27;743;-34
2021/09/15 02:08:13;;;;;;;;;;;;;;;23.25;46.55;100826.25;5158646;27;818;-33
2021/09/15 02:10:38;;;;;;;;;;;;;;;23.15;47.07;100826.34;5158232;27;834;-32
2021/09/15 02:13:04;;;;;;;;;;;;;;;22.93;47.41;100825.81;5158415;27;846;-32
2021/09/15 02:15:29;;;;;;;;;;;;;;;22.89;47.64;100818.22;5157997;27;1909;-46
2021/09/15 02:17:54;;;;;;;;;;;;;;;24.28;45.28;100826.59;5158257;27;744;-35
2021/09/15 02:20:19;;;;;;;;;;;;;;;25.38;42.10;100823.94;5158499;27;759;-33
2021/09/15 02:22:45;;;;;;;;;;;;;;;26.04;40.64;100827.56;5139696;27;1570;-32
2021/09/15 02:25:10;;;;;;;;;;;;;;;26.35;40.15;100823.25;5158093;27;751;-30
2021/09/15 02:27:36;;;;;;;;;;;;;;;26.57;39.80;100828.88;5157999;27;791;-33
2021/09/15 02:30:01;;;;;;;;;;;;;;;26.66;40.23;100835.88;5157821;27;993;-33
2021/09/15 02:32:26;;;;;;;;;;;;;;;26.82;40.04;100832.25;5158079;27;882;-33
2021/09/15 02:34:51;;;;;;;;;;;;;;;24.92;43.77;100837.91;5158431;27;1964;-33
2021/09/15 02:37:18;;;;;;;;;;;;;;;23.85;45.73;100826.53;5157923;27;767;-31
2021/09/15 02:39:44;;;;;;;;;;;;;;;23.52;46.46;100829.84;5157865;27;850;-33
2021/09/15 02:42:09;;;;;;;;;;;;;;;23.07;47.47;100820.91;5158234;27;771;-29
2021/09/15 02:44:34;;;;;;;;;;;;;;;22.93;47.63;100833.00;5157553;27;997;-34
2021/09/15 02:47:00;;;;;;;;;;;;;;;22.76;47.99;100824.78;5157995;27;827;-35
2021/09/15 02:49:27;;;;;;;;;;;;;;;22.65;49.26;100819.66;5157773;27;1292;-33
2021/09/15 02:51:53;;;;;;;;;;;;;;;24.64;44.29;100828.22;5157707;27;775;-40
2021/09/15 02:54:18;;;;;;;;;;;;;;;25.50;41.98;100829.84;5157920;27;1914;-34
2021/09/15 02:56:44;;;;;;;;;;;;;;;25.99;41.15;100829.94;5157848;27;834;-34
2021/09/15 02:59:09;;;;;;;;;;;;;;;26.19;40.99;100827.69;5157258;27;1012;-34
2021/09/15 03:01:34;;;;;;;;;;;;;;;26.19;41.00;100826.84;5157717;27;795;-43
2021/09/15 03:04:00;;;;;;;;;;;;;;;26.51;39.90;100841.19;5157902;27;770;-40
2021/09/15 03:06:25;;;;;;;;;;;;;;;26.73;39.38;100831.47;5138891;27;776;-36
2021/09/15 03:08:50;;;;;;;;;;;;;;;26.87;39.07;100839.81;5157437;27;1001;-32
2021/09/15 03:11:16;;;;;;;;;;;;;;;25.69;40.51;100833.22;5157733;27;743;-34
2021/09/15 03:13:41;;;;;;;;;;;;;;;24.04;44.78;100833.50;5157307;27;1964;-34
2021/09/15 03:16:06;;;;;;;;;;;;;;;23.65;45.86;100834.81;5157268;27;816;-32
2021/09/15 03:18:31;;;;;;;;;;;;;;;23.29;46.49;100838.34;5160658;27;799;-33
2021/09/15 03:20:57;;;;;;;;;;;;;;;23.00;47.02;100834.91;5161527;27;1620;-29
2021/09/15 03:23:22;;;;;;;;;;;;;;;22.88;47.49;100833.47;5161834;27;834;-33
2021/09/15 03:25:48;;;;;;;;;;;;;;;22.75;47.61;100844.56;5161726;27;814;-34
2021/09/15 03:28:13;;;;;;;;;;;;;;;24.40;44.89;100854.06;5161912;27;861;-34
2021/09/15 03:30:38;;;;;;;;;;;;;;;25.36;42.21;100847.50;5160931;27;981;-33
2021/09/15 03:33:03;;;;;;;;;;;;;;;25.94;41.11;100856.56;5161486;27;774;-45
2021/09/15 03:35:29;;;;;;;;;;;;;;;25.84;39.15;100859.47;5161986;27;1982;-33
2021/09/15 03:37:54;;;;;;;;;;;;;;;23.85;45.10;100859.63;5161644;27;846;-32
2021/09/15 03:40:20;;;;;;;;;;;;;;;23.24;46.74;100854.94;5161003;27;772;-29
2021/09/15 03:42:46;;;;;;;;;;;;;;;22.90;47.47;100861.00;5161610;27;830;-28
2021/09/15 03:45:11;;;;;;;;;;;;;;;22.81;47.56;100868.09;5160677;27;973;-35
2021/09/15 03:47:36;;;;;;;;;;;;;;;22.50;48.28;100866.53;5161168;27;847;-32
2021/09/15 03:50:02;;;;;;;;;;;;;;;24.30;44.59;100864.94;5160581;27;1236;-45
2021/09/15 03:52:27;;;;;;;;;;;;;;;23.64;41.26;100865.34;5161057;27;1169;-27
2021/09/15 03:54:53;;;;;;;;;;;;;;;24.32;40.02;100864.78;5160437;27;1965;-38
2021/09/15 03:57:18;;;;;;;;;;;;;;;24.98;39.03;100872.22;5163477;27;1216;-27
2021/09/15 03:59:43;;;;;;;;;;;;;;;24.78;38.19;100869.78;5167718;27;1210;-41
2021/09/15 04:02:08;;;;;;;;;;;;;;;24.85;37.26;100869.97;5167471;27;1372;-35
2021/09/15 04:04:34;;;;;;;;;;;;;;;24.80;37.27;100869.63;5175567;27;1542;-32
2021/09/15 04:06:59;;;;;;;;;;;;;;;24.77;37.42;100872.66;5170603;27;1468;-40
2021/09/15 04:09:24;;;;;;;;;;;;;;;23.12;40.94;100873.09;5165250;27;1500;-31
2021/09/15 04:11:50;;;;;;;;;;;;;;;24.39;38.38;100873.84;5175220;27;1354;-36
2021/09/15 04:14:15;;;;;;;;;;;;;;;25.42;36.13;100879.13;5157609;27;1965;-36
2021/09/15 04:16:40;;;;;;;;;;;;;;;25.19;37.05;100887.06;5160721;27;806;-40
2021/09/15 04:19:05;;;;;;;;;;;;;;;25.23;37.09;100884.84;5163123;27;1458;-28
2021/09/15 04:21:33;;;;;;;;;;;;;;;25.66;36.84;100893.66;5170663;27;1445;-34
2021/09/15 04:24:15;;;;;;;;;;;;;;;25.96;36.13;100892.28;5174383;27;1378;-34
2021/09/15 04:31:15;;;;;;;;;;;;;;;26.22;35.93;100893.88;5161599;27;1311;-30
2021/09/15 04:32:28;;;;;;;;;;;;;;;26.42;36.90;100888.97;5160701;27;1600;-39
2021/09/15 04:34:53;;;;;;;;;;;;;;;26.61;35.97;100885.00;5164103;27;1960;-40
2021/09/15 04:37:18;;;;;;;;;;;;;;;26.70;35.65;100895.72;5159693;27;775;-33
2021/09/15 04:39:44;;;;;;;;;;;;;;;26.70;35.70;100899.28;5174759;27;723;-31
2021/09/15 04:42:09;;;;;;;;;;;;;;;26.96;34.92;100894.59;5181033;27;783;-33
2021/09/15 04:44:34;;;;;;;;;;;;;;;26.67;35.65;100899.63;5159393;27;817;-33
2021/09/15 04:47:00;;;;;;;;;;;;;;;27.12;35.19;100899.91;5160436;27;901;-37
2021/09/15 04:49:25;;;;;;;;;;;;;;;27.28;35.08;100902.69;5159464;27;1307;-37
2021/09/15 04:51:50;;;;;;;;;;;;;;;27.31;35.75;100905.84;5163513;27;1381;-35
2021/09/15 04:54:15;;;;;;;;;;;;;;;27.46;35.59;100907.78;5170286;27;1974;-31
2021/09/15 04:56:41;;;;;;;;;;;;;;;27.60;35.41;100912.38;5180818;27;806;-40
2021/09/15 04:59:06;;;;;;;;;;;;;;;27.62;35.02;100923.00;5173902;27;1211;-31
2021/09/15 05:01:31;;;;;;;;;;;;;;;27.62;35.23;100917.59;5161635;27;1343;-41
2021/09/15 05:03:56;;;;;;;;;;;;;;;27.32;35.05;100931.84;5161025;27;1440;-38
2021/09/15 05:06:22;;;;;;;;;;;;;;;26.90;35.73;100934.78;5164043;27;1310;-30
2021/09/15 05:08:47;;;;;;;;;;;;;;;26.97;35.72;100943.00;5170698;27;1322;-31
2021/09/15 05:11:12;;;;;;;;;;;;;;;27.04;35.99;100942.31;5166759;27;1168;-33
2021/09/15 05:13:38;;;;;;;;;;;;;;;27.01;35.84;100944.34;5162310;27;1124;-34
2021/09/15 05:16:03;;;;;;;;;;;;;;;26.94;35.66;100953.31;5158989;27;1893;-37
2021/09/15 05:18:29;;;;;;;;;;;;;;;26.96;35.18;100944.00;5174357;27;1465;-24
2021/09/15 05:20:54;;;;;;;;;;;;;;;26.99;35.72;100953.63;5176425;27;1505;-29
2021/09/15 05:23:20;;;;;;;;;;;;;;;26.94;35.84;100945.22;5171431;27;822;-31
2021/09/15 05:25:45;;;;;;;;;;;;;;;27.00;35.75;100944.50;5180234;27;810;-30
2021/09/15 05:28:10;;;;;;;;;;;;;;;27.08;35.74;100940.94;5158493;27;798;-32
2021/09/15 05:30:36;;;;;;;;;;;;;;;27.12;35.85;100936.88;5158321;27;906;-33
2021/09/15 05:33:01;;;;;;;;;;;;;;;27.10;35.90;100936.19;5159337;27;754;-32
2021/09/15 05:35:26;;;;;;;;;;;;;;;26.98;36.08;100933.88;5159162;27;1978;-30
2021/09/15 05:37:52;;;;;;;;;;;;;;;27.04;36.06;100936.91;5160445;27;1452;-28
2021/09/15 05:40:17;;;;;;;;;;;;;;;27.04;35.93;100942.31;5163100;27;1362;-32
2021/09/15 05:42:42;;;;;;;;;;;;;;;26.90;36.07;100942.03;5167981;27;1321;-32
2021/09/15 05:45:08;;;;;;;;;;;;;;;27.05;36.31;100936.75;5167658;27;1160;-33
2021/09/15 05:47:33;;;;;;;;;;;;;;;26.99;36.62;100943.66;5169529;27;1124;-33
2021/09/15 05:49:58;;;;;;;;;;;;;;;27.12;36.62;100944.97;5159439;27;1204;-35
2021/09/15 05:52:24;;;;;;;;;;;;;;;27.13;35.76;100944.78;5157628;27;1209;-32
2021/09/15 05:54:49;;;;;;;;;;;;;;;27.05;35.39;100944.00;5161625;27;1909;-38
2021/09/15 05:57:14;;;;;;;;;;;;;;;26.86;35.64;100944.22;5169888;27;755;-32
2021/09/15 05:59:43;;;;;;;;;;;;;;;26.93;35.28;100943.50;5167946;27;956;-38
2021/09/15 06:02:14;;;;;;;;;;;;;;;27.45;34.98;100943.91;5168383;27;1461;-28
2021/09/15 06:04:39;;;;;;;;;;;;;;;27.66;34.35;100945.91;5163154;27;1381;-32
2021/09/15 06:07:04;;;;;;;;;;;;;;;26.82;35.78;100937.53;5160158;27;1361;-34
2021/09/15 06:09:33;;;;;;;;;;;;;;;27.62;34.54;100948.16;5168836;27;1260;-29
2021/09/15 06:11:58;;;;;;;;;;;;;;;28.08;34.23;100950.97;5166551;27;1258;-30
2021/09/15 06:14:23;;;;;;;;;;;;;;;28.14;34.45;100942.13;5168279;27;1905;-33
2021/09/15 06:16:48;;;;;;;;;;;;;;;28.19;34.96;100950.53;5166368;27;1477;-32
2021/09/15 06:19:14;;;;;;;;;;;;;;;28.39;33.93;100946.47;5159423;27;1171;-31
2021/09/15 06:21:39;;;;;;;;;;;;;;;28.29;33.41;100955.66;5161337;27;1415;-32
2021/09/15 06:24:04;;;;;;;;;;;;;;;28.22;33.61;100954.72;5167424;27;1543;-34
2021/09/15 06:26:30;;;;;;;;;;;;;;;28.27;33.45;100951.47;5149269;27;1339;-35
2021/09/15 06:28:55;;;;;;;;;;;;;;;28.40;33.34;100951.69;5159508;27;1237;-39
2021/09/15 06:31:24;;;;;;;;;;;;;;;28.09;33.24;100955.38;5164206;27;1369;-32
2021/09/15 06:33:49;;;;;;;;;;;;;;;27.83;33.19;100954.75;5161042;27;1897;-34
2021/09/15 06:36:15;;;;;;;;;;;;;;;27.47;33.92;100952.66;5161728;27;750;-34
2021/09/15 06:38:41;;;;;;;;;;;;;;;27.46;34.05;100954.53;5158229;27;830;-35
2021/09/15 06:41:07;;;;;;;;;;;;;;;27.63;33.96;100959.78;5138690;27;858;-34
2021/09/15 06:43:32;;;;;;;;;;;;;;;26.64;35.54;100957.47;5156587;27;870;-34
2021/09/15 06:45:57;;;;;;;;;;;;;;;27.73;34.03;100951.47;5160501;27;1330;-34
2021/09/15 06:48:22;;;;;;;;;;;;;;;28.18;33.54;100950.69;5158682;27;1481;-33
2021/09/15 06:50:48;;;;;;;;;;;;;;;28.32;33.32;100949.88;5171200;27;1385;-34
2021/09/15 06:53:13;;;;;;;;;;;;;;;28.47;33.22;100954.47;5168155;27;1190;-34
2021/09/15 06:55:38;;;;;;;;;;;;;;;28.58;33.51;100954.00;5171914;27;1980;-32
2021/09/15 06:58:04;;;;;;;;;;;;;;;28.54;33.31;100955.41;5163343;27;1404;-32
2021/09/15 07:00:29;;;;;;;;;;;;;;;28.55;33.82;100956.22;5170805;27;1107;-35
2021/09/15 07:02:55;;;;;;;;;;;;;;;28.68;33.72;100955.56;5171826;27;1397;-36
2021/09/15 07:05:20;;;;;;;;;;;;;;;28.32;35.24;100962.56;5169972;27;1321;-35
2021/09/15 07:07:46;;;;;;;;;;;;;;;28.45;34.47;100956.53;5165291;27;1524;-33
2021/09/15 07:10:14;;;;;;;;;;;;;;;27.62;36.37;100950.03;5164921;27;1196;-34
2021/09/15 07:12:40;;;;;;;;;;;;;;;28.44;34.75;100949.44;5166073;27;1322;-33
2021/09/15 07:15:06;;;;;;;;;;;;;;;28.81;34.56;100947.63;5161850;27;1926;-35
2021/09/15 07:17:34;;;;;;;;;;;;;;;28.73;34.80;100940.44;5164650;27;1362;-35
2021/09/15 07:19:59;;;;;;;;;;;;;;;28.80;35.02;100940.53;5168948;27;754;-33
2021/09/15 07:22:25;;;;;;;;;;;;;;;28.84;35.06;100944.53;5164182;27;1541;-32
2021/09/15 07:24:51;;;;;;;;;;;;;;;28.95;34.90;100940.50;5169881;27;1346;-35
2021/09/15 07:27:17;;;;;;;;;;;;;;;28.95;34.68;100934.22;5169309;27;1263;-33
2021/09/15 07:29:42;;;;;;;;;;;;;;;29.05;34.59;100936.66;5166310;27;1421;-34
2021/09/15 07:32:07;;;;;;;;;;;;;;;29.01;34.92;100930.78;5173935;27;1354;-35
2021/09/15 07:34:33;;;;;;;;;;;;;;;29.04;35.00;100929.56;5168942;27;1960;-34
2021/09/15 07:36:58;;;;;;;;;;;;;;;29.04;35.30;100929.56;5158904;27;810;-32
2021/09/15 07:39:23;;;;;;;;;;;;;;;29.07;35.27;100934.59;5178255;27;811;-35
2021/09/15 07:41:49;;;;;;;;;;;;;;;29.19;35.32;100940.34;5163245;27;806;-34
2021/09/15 07:44:14;;;;;;;;;;;;;;;29.18;34.99;100935.94;5159223;27;1477;-35
2021/09/15 07:46:39;;;;;;;;;;;;;;;29.23;35.00;100938.94;5161301;27;1393;-34
2021/09/15 07:49:04;;;;;;;;;;;;;;;29.18;35.38;100936.81;5165158;27;1318;-35
2021/09/15 07:51:30;;;;;;;;;;;;;;;29.25;35.15;100939.59;5175812;27;1349;-35
2021/09/15 07:53:55;;;;;;;;;;;;;;;29.26;35.18;100935.81;5165548;27;1914;-34
2021/09/15 07:56:20;;;;;;;;;;;;;;;29.27;34.91;100934.81;5167398;27;1299;-34
2021/09/15 07:58:46;;;;;;;;;;;;;;;29.34;34.83;100933.00;5159235;27;1473;-34
2021/09/15 08:01:11;;;;;;;;;;;;;;;29.47;34.47;100936.88;5159662;27;1438;-32
2021/09/15 08:03:36;;;;;;;;;;;;;;;29.41;34.47;100934.94;5159901;27;1476;-35
2021/09/15 08:06:04;;;;;;;;;;;;;;;29.43;34.63;100936.41;5177886;27;802;-33
2021/09/15 08:08:30;;;;;;;;;;;;;;;29.49;34.34;100937.53;5160916;27;826;-34
2021/09/15 08:10:55;;;;;;;;;;;;;;;29.50;34.17;100936.47;5160278;27;791;-35
2021/09/15 08:13:23;;;;;;;;;;;;;;;29.42;34.49;100937.47;5162389;27;1290;-35
2021/09/15 08:15:49;;;;;;;;;;;;;;;29.45;34.50;100939.78;5159876;27;1966;-34
2021/09/15 08:18:14;;;;;;;;;;;;;;;29.43;34.51;100935.56;5160023;27;759;-35
2021/09/15 08:20:45;;;;;;;;;;;;;;;29.34;34.69;100937.59;5160806;27;1490;-35
2021/09/15 08:23:10;;;;;;;;;;;;;;;29.23;34.65;100935.41;5160282;27;840;-34
2021/09/15 08:25:36;;;;;;;;;;;;;;;29.00;33.76;100929.13;5159386;27;874;-35
2021/09/15 08:28:01;;;;;;;;;;;;;;;29.44;33.35;100932.69;5160068;27;886;-34
2021/09/15 08:30:26;;;;;;;;;;;;;;;29.34;33.35;100932.16;5160126;27;933;-34
2021/09/15 08:32:52;;;;;;;;;;;;;;;29.30;33.21;100936.28;5159677;27;866;-36
2021/09/15 08:35:17;;;;;;;;;;;;;;;29.11;32.23;100935.06;5160250;27;1902;-35
2021/09/15 08:37:42;;;;;;;;;;;;;;;29.34;31.78;100935.69;5159756;27;775;-35
2021/09/15 08:40:08;;;;;;;;;;;;;;;28.64;33.50;100936.19;5159582;27;1543;-39
2021/09/15 08:42:33;;;;;;;;;;;;;;;27.31;36.44;100923.94;5177842;27;1369;-35
2021/09/15 08:44:58;;;;;;;;;;;;;;;27.86;35.83;100931.94;5166392;27;1251;-40
2021/09/15 08:47:27;;;;;;;;;;;;;;;27.64;36.31;100937.16;5179044;27;1550;-37
2021/09/15 08:49:52;;;;;;;;;;;;;;;29.32;33.48;100935.06;5168313;27;1426;-39
2021/09/15 08:52:18;;;;;;;;;;;;;;;29.64;33.01;100929.34;5141116;27;1342;-37
2021/09/15 08:54:43;;;;;;;;;;;;;;;29.85;32.42;100932.19;5165520;27;1913;-39
2021/09/15 08:57:11;;;;;;;;;;;;;;;29.92;32.48;100928.50;5172256;27;796;-32
2021/09/15 08:59:36;;;;;;;;;;;;;;;30.04;32.37;100917.09;5159429;27;945;-34
2021/09/15 09:02:09;;;;;;;;;;;;;;;30.09;32.47;100914.63;5159279;27;835;-33
2021/09/15 09:04:52;;;;;;;;;;;;;;;30.17;32.28;100919.91;5158983;27;829;-32
2021/09/15 09:07:18;;;;;;;;;;;;;;;30.26;32.22;100920.56;5159720;27;759;-40
2021/09/15 09:09:44;;;;;;;;;;;;;;;30.36;32.21;100914.81;5159463;27;763;-41
2021/09/15 09:12:09;;;;;;;;;;;;;;;30.28;32.63;100915.78;5162339;27;1382;-38
2021/09/15 09:14:35;;;;;;;;;;;;;;;30.12;32.85;100922.38;5161641;27;1974;-36
2021/09/15 09:17:00;;;;;;;;;;;;;;;30.13;32.98;100928.63;5158883;27;1497;-38
2021/09/15 09:19:28;;;;;;;;;;;;;;;30.17;32.84;100928.03;5158780;27;1492;-36
2021/09/15 09:21:53;;;;;;;;;;;;;;;28.41;34.86;100923.59;5167675;27;1402;-39
2021/09/15 09:24:23;;;;;;;;;;;;;;;28.51;34.27;100925.19;5165648;27;767;-32
2021/09/15 09:26:58;;;;;;;;;;;;;;;27.61;36.97;100922.16;5180068;27;783;-33
2021/09/15 09:29:24;;;;;;;;;;;;;;;28.01;35.09;100923.00;5170812;27;972;-36
2021/09/15 09:31:53;;;;;;;;;;;;;;;25.48;35.25;100923.44;5159685;27;804;-31
2021/09/15 09:34:20;;;;;;;;;;;;;;;25.02;37.81;100913.97;5158625;27;1905;-38
2021/09/15 09:36:54;;;;;;;;;;;;;;;25.11;39.79;100920.19;5159286;27;806;-29
2021/09/15 09:39:19;;;;;;;;;;;;;;;25.05;40.65;100912.78;5159002;27;890;-32
2021/09/15 09:41:44;;;;;;;;;;;;;;;24.97;41.35;100920.81;5158533;27;794;-37
2021/09/15 09:44:10;;;;;;;;;;;;;;;24.78;42.28;100915.53;5140327;27;1001;-32
2021/09/15 09:46:41;;;;;;;;;;;;;;;21.92;50.03;100908.63;5159065;27;787;-31
2021/09/15 09:49:06;;;;;;;;;;;;;;;21.13;53.35;100903.25;5158357;27;1061;-33
2021/09/15 09:51:45;;;;;;;;;;;;;;;20.84;54.38;100904.88;5159039;27;753;-31
2021/09/15 09:54:10;;;;;;;;;;;;;;;20.60;55.38;100911.41;5158525;27;1909;-30
2021/09/15 09:56:36;;;;;;;;;;;;;;;20.58;55.71;100905.34;5158665;27;830;-31
2021/09/15 09:59:02;;;;;;;;;;;;;;;20.38;56.08;100904.41;5158522;27;1004;-39
2021/09/15 10:01:27;;;;;;;;;;;;;;;20.26;56.31;100893.81;5158790;27;834;-32
2021/09/15 10:03:53;;;;;;;;;;;;;;;20.01;57.21;100889.72;5139794;27;759;-37
2021/09/15 10:06:19;;;;;;;;;;;;;;;19.98;57.39;100889.97;5158712;27;826;-32
2021/09/15 10:08:44;;;;;;;;;;;;;;;19.95;57.80;100886.59;5158153;27;836;-35
2021/09/15 10:11:10;;;;;;;;;;;;;;;19.97;57.81;100885.63;5158338;27;808;-31
2021/09/15 10:13:35;;;;;;;;;;;;;;;19.94;58.12;100884.91;5158349;27;1009;-36
2021/09/15 10:16:03;;;;;;;;;;;;;;;19.98;58.44;100884.66;5158490;27;1897;-29
2021/09/15 10:18:29;;;;;;;;;;;;;;;19.99;58.73;100884.50;5158212;27;818;-34
2021/09/15 10:20:55;;;;;;;;;;;;;;;20.03;58.62;100883.31;5139767;27;1704;-32
2021/09/15 10:23:33;;;;;;;;;;;;;;;22.61;52.80;100884.31;5139363;27;791;-32
2021/09/15 10:25:59;;;;;;;;;;;;;;;21.78;52.17;100896.53;5158413;27;763;-32
2021/09/15 10:28:24;;;;;;;;;;;;;;;20.09;56.80;100881.06;5157663;27;811;-35
2021/09/15 10:30:49;;;;;;;;;;;;;;;19.73;58.16;100881.41;5157611;27;926;-35
2021/09/15 10:33:33;;;;;;;;;;;;;;;19.47;58.88;100887.13;5157489;27;863;-34
2021/09/15 10:35:58;;;;;;;;;;;;;;;19.47;58.89;100882.59;5158075;27;1886;-32
2021/09/15 10:38:44;;;;;;;;;;;;;;;19.38;59.23;100891.38;5158088;27;853;-38
2021/09/15 10:41:28;;;;;;;;;;;;;;;19.35;59.57;100891.66;5143443;27;1707;-34
2021/09/15 10:44:03;;;;;;;;;;;;;;;20.64;59.43;100887.91;5157378;27;894;-34
2021/09/15 10:46:28;;;;;;;;;;;;;;;23.66;48.02;100894.72;5158024;27;858;-37
2021/09/15 10:49:12;;;;;;;;;;;;;;;24.64;44.85;100895.47;5157786;27;1190;-34
2021/09/15 10:51:37;;;;;;;;;;;;;;;20.87;54.06;100893.88;5156886;27;1153;-32
2021/09/15 10:54:02;;;;;;;;;;;;;;;19.86;57.65;100886.53;5157424;27;1980;-35
2021/09/15 10:56:36;;;;;;;;;;;;;;;19.61;58.46;100877.94;5157636;27;822;-31
2021/09/15 10:59:02;;;;;;;;;;;;;;;19.50;59.44;100870.84;5157010;27;993;-32
2021/09/15 11:01:37;;;;;;;;;;;;;;;19.47;59.74;100863.94;5158273;27;778;-30
2021/09/15 11:04:02;;;;;;;;;;;;;;;19.41;59.90;100862.63;5157327;27;821;-32
2021/09/15 11:06:28;;;;;;;;;;;;;;;21.19;57.01;100875.94;5139034;27;1286;-31
2021/09/15 11:08:53;;;;;;;;;;;;;;;23.72;48.12;100869.94;5138888;27;1375;-35
2021/09/15 11:11:21;;;;;;;;;;;;;;;24.67;45.44;100872.78;5157684;27;727;-35
2021/09/15 11:13:48;;;;;;;;;;;;;;;20.46;55.08;100882.38;5157094;27;914;-31
2021/09/15 11:16:23;;;;;;;;;;;;;;;19.65;58.45;100869.53;5157479;27;1897;-37
2021/09/15 11:18:57;;;;;;;;;;;;;;;19.57;58.93;100872.84;5156982;27;882;-31
2021/09/15 11:21:23;;;;;;;;;;;;;;;19.39;59.92;100861.91;5157311;27;1625;-35
2021/09/15 11:23:52;;;;;;;;;;;;;;;19.49;59.90;100864.66;5157724;27;768;-31
2021/09/15 11:26:17;;;;;;;;;;;;;;;19.43;60.10;100871.38;5157076;27;767;-30
2021/09/15 11:28:44;;;;;;;;;;;;;;;21.49;56.37;100866.09;5138352;27;1344;-33
2021/09/15 11:31:10;;;;;;;;;;;;;;;23.76;48.14;100860.56;5157742;27;858;-34
2021/09/15 11:33:36;;;;;;;;;;;;;;;23.10;48.47;100872.44;5157162;27;858;-39
2021/09/15 11:36:01;;;;;;;;;;;;;;;20.02;56.97;100862.06;5157439;27;1901;-38
2021/09/15 11:38:27;;;;;;;;;;;;;;;19.65;59.21;100868.72;5157756;27;803;-34
2021/09/15 11:40:52;;;;;;;;;;;;;;;19.47;59.61;100860.44;5160658;27;834;-37
2021/09/15 11:43:19;;;;;;;;;;;;;;;19.31;60.26;100848.38;5161914;27;770;-33
2021/09/15 11:45:46;;;;;;;;;;;;;;;19.25;60.37;100844.38;5161100;27;938;-41
2021/09/15 11:48:11;;;;;;;;;;;;;;;19.01;61.05;100844.56;5161074;27;1336;-33
2021/09/15 11:50:37;;;;;;;;;;;;;;;21.92;54.35;100846.19;5161202;27;866;-34
2021/09/15 11:55:30;;;;;;;;;;;;;;;24.43;45.77;100845.66;5160469;27;1980;-32
2021/09/15 11:58:00;;;;;;;;;;;;;;;24.90;44.66;100850.66;5161153;27;786;-33
2021/09/15 12:00:25;;;;;;;;;;;;;;;25.20;43.27;100851.06;5160746;27;1012;-37
2021/09/15 12:02:51;;;;;;;;;;;;;;;25.52;42.79;100845.81;5160914;27;558;-40
2021/09/15 12:05:16;;;;;;;;;;;;;;;25.76;42.13;100836.88;5160653;27;813;-34
2021/09/15 12:07:42;;;;;;;;;;;;;;;20.71;55.07;100830.25;5160864;27;886;-40
2021/09/15 12:10:08;;;;;;;;;;;;;;;19.73;57.68;100823.53;5142153;27;800;-40
2021/09/15 12:12:33;;;;;;;;;;;;;;;19.44;59.05;100834.84;5142226;27;1489;-42
2021/09/15 12:14:58;;;;;;;;;;;;;;;19.39;59.31;100831.72;5160124;27;1921;-41
2021/09/15 12:17:24;;;;;;;;;;;;;;;19.11;60.22;100826.88;5160146;27;826;-41
2021/09/15 12:19:50;;;;;;;;;;;;;;;19.27;60.28;100825.59;5160512;27;835;-40
2021/09/15 12:22:19;;;;;;;;;;;;;;;19.58;60.58;100813.16;5145880;27;1549;-40
2021/09/15 12:24:57;;;;;;;;;;;;;;;22.84;51.11;100811.47;5139722;27;812;-32
2021/09/15 12:27:23;;;;;;;;;;;;;;;24.36;46.59;100816.91;5139552;27;756;-32
2021/09/15 12:29:56;;;;;;;;;;;;;;;21.34;52.91;100806.81;5150914;27;910;-34
2021/09/15 12:32:26;;;;;;;;;;;;;;;19.92;57.94;100803.22;5160398;27;823;-42
2021/09/15 12:34:51;;;;;;;;;;;;;;;19.44;59.48;100800.16;5160294;27;1894;-43
2021/09/15 12:37:17;;;;;;;;;;;;;;;19.28;60.27;100797.94;5160341;27;827;-31
2021/09/15 12:39:45;;;;;;;;;;;;;;;19.24;60.66;100791.16;5141760;27;1166;-43
2021/09/15 12:42:13;;;;;;;;;;;;;;;19.41;60.35;100789.75;5160006;27;828;-39
2021/09/15 12:44:39;;;;;;;;;;;;;;;20.81;59.28;100792.84;5159874;27;941;-38
2021/09/15 12:47:05;;;;;;;;;;;;;;;23.47;49.38;100786.53;5159880;27;762;-35
2021/09/15 12:49:30;;;;;;;;;;;;;;;20.05;57.07;100790.53;5159107;27;1214;-32
2021/09/15 12:52:14;;;;;;;;;;;;;;;19.36;59.66;100783.97;5160169;27;791;-36
2021/09/15 12:54:49;;;;;;;;;;;;;;;19.28;60.40;100788.13;5160023;27;1978;-31